createdAt,value
2023-03-14T00:01:02.336Z,12.60
2023-03-14T00:03:30.731Z,12.50
2023-03-14T00:06:04.290Z,12.50
2023-03-14T00:08:32.607Z,12.50
2023-03-14T00:11:05.511Z,12.50
2023-03-14T00:13:33.444Z,12.50
2023-03-14T00:16:05.166Z,12.50
2023-03-14T00:18:33.686Z,12.50
2023-03-14T00:21:04.417Z,12.40
2023-03-14T00:23:33.753Z,12.40
2023-03-14T00:26:02.651Z,12.40
2023-03-14T00:28:31.180Z,12.40
2023-03-14T00:30:59.238Z,12.40
2023-03-14T00:33:27.151Z,12.40
2023-03-14T00:35:56.576Z,12.40
2023-03-14T00:38:26.470Z,12.40
2023-03-14T00:40:55.091Z,12.40
2023-03-14T00:43:23.595Z,12.40
2023-03-14T00:45:51.700Z,12.40
2023-03-14T00:48:19.777Z,12.40
2023-03-14T00:50:48.126Z,12.40
2023-03-14T00:53:16.112Z,12.40
2023-03-14T00:55:46.182Z,12.40
2023-03-14T00:58:15.385Z,12.50
2023-03-14T01:00:44.066Z,12.50
2023-03-14T01:03:13.040Z,12.50
2023-03-14T01:05:41.151Z,12.50
2023-03-14T01:08:09.637Z,12.50
2023-03-14T01:10:40.829Z,12.50
2023-03-14T01:13:10.558Z,12.50
2023-03-14T01:15:39.552Z,12.50
2023-03-14T01:18:07.645Z,12.50
2023-03-14T01:20:35.529Z,12.50
2023-03-14T01:23:03.455Z,12.50
2023-03-14T01:25:31.390Z,12.50
2023-03-14T01:27:59.270Z,12.50
2023-03-14T01:30:28.825Z,12.50
2023-03-14T01:32:56.718Z,12.50
2023-03-14T01:35:24.642Z,12.50
2023-03-14T01:37:52.512Z,12.50
2023-03-14T01:40:20.620Z,12.50
2023-03-14T01:42:49.239Z,12.50
2023-03-14T01:45:53.497Z,12.50
2023-03-14T01:48:22.775Z,12.40
2023-03-14T01:50:50.861Z,12.40
2023-03-14T01:53:22.224Z,12.40
2023-03-14T01:55:50.515Z,12.40
2023-03-14T01:58:21.011Z,12.40
2023-03-14T02:00:48.995Z,12.40
2023-03-14T02:03:19.730Z,12.30
2023-03-14T02:05:50.470Z,12.40
2023-03-14T02:08:22.330Z,12.40
2023-03-14T02:10:51.440Z,12.40
2023-03-14T02:13:21.760Z,12.30
2023-03-14T02:15:49.985Z,12.30
2023-03-14T02:18:19.209Z,12.20
2023-03-14T02:20:55.205Z,12.20
2023-03-14T02:23:33.808Z,12.20
2023-03-14T02:26:08.049Z,12.20
2023-03-14T02:28:37.315Z,12.10
2023-03-14T02:31:05.820Z,12.10
2023-03-14T02:33:34.444Z,12.00
2023-03-14T02:36:06.999Z,12.00
2023-03-14T02:38:38.633Z,12.00
2023-03-14T02:41:07.311Z,12.00
2023-03-14T02:43:35.231Z,12.00
2023-03-14T02:46:07.326Z,12.00
2023-03-14T02:48:38.897Z,12.00
2023-03-14T02:51:07.398Z,12.00
2023-03-14T02:53:37.571Z,12.00
2023-03-14T02:56:06.054Z,12.00
2023-03-14T02:58:33.992Z,12.10
2023-03-14T03:01:01.898Z,12.10
2023-03-14T03:03:31.185Z,12.10
2023-03-14T03:05:59.568Z,12.10
2023-03-14T03:08:29.303Z,12.10
2023-03-14T03:10:58.615Z,12.10
2023-03-14T03:13:28.038Z,12.10
2023-03-14T03:15:55.910Z,12.10
2023-03-14T03:18:24.035Z,12.10
2023-03-14T03:20:53.316Z,12.10
2023-03-14T03:23:21.207Z,12.10
2023-03-14T03:25:52.570Z,12.00
2023-03-14T03:28:20.485Z,12.00
2023-03-14T03:30:48.450Z,12.00
2023-03-14T03:33:16.400Z,12.00
2023-03-14T03:35:46.184Z,12.00
2023-03-14T03:38:16.159Z,12.00
2023-03-14T03:40:44.343Z,12.00
2023-03-14T03:43:12.485Z,11.90
2023-03-14T03:45:40.397Z,11.90
2023-03-14T03:48:08.343Z,11.90
2023-03-14T03:50:36.278Z,11.90
2023-03-14T03:53:04.249Z,11.90
2023-03-14T03:55:33.466Z,11.90
2023-03-14T03:58:01.336Z,11.80
2023-03-14T04:00:29.304Z,11.80
2023-03-14T04:02:57.310Z,11.80
2023-03-14T04:05:25.246Z,11.80
2023-03-14T04:07:53.090Z,11.80
2023-03-14T04:10:20.947Z,11.80
2023-03-14T04:12:50.223Z,11.80
2023-03-14T04:15:18.081Z,11.80
2023-03-14T04:17:46.010Z,11.80
2023-03-14T04:20:14.580Z,11.80
2023-03-14T04:22:44.572Z,11.80
2023-03-14T04:25:12.684Z,11.80
2023-03-14T04:27:40.567Z,11.80
2023-03-14T04:30:11.480Z,11.80
2023-03-14T04:32:41.409Z,11.70
2023-03-14T04:35:09.943Z,11.70
2023-03-14T04:37:37.793Z,11.70
2023-03-14T04:40:07.569Z,11.70
2023-03-14T04:42:35.477Z,11.70
2023-03-14T04:45:03.582Z,11.70
2023-03-14T04:47:33.026Z,11.70
2023-03-14T04:50:00.941Z,11.70
2023-03-14T04:52:29.912Z,11.70
2023-03-14T04:54:57.911Z,11.60
2023-03-14T04:57:26.029Z,11.60
2023-03-14T04:59:53.937Z,11.60
2023-03-14T05:02:21.811Z,11.60
2023-03-14T05:04:51.032Z,11.60
2023-03-14T05:07:18.963Z,11.60
2023-03-14T05:09:46.851Z,11.60
2023-03-14T05:12:14.778Z,11.60
2023-03-14T05:14:42.670Z,11.60
2023-03-14T05:17:10.590Z,11.60
2023-03-14T05:19:38.464Z,11.60
2023-03-14T05:22:07.688Z,11.60
2023-03-14T05:24:35.654Z,11.60
2023-03-14T05:27:03.557Z,11.60
2023-03-14T05:29:31.669Z,11.60
2023-03-14T05:31:59.547Z,11.60
2023-03-14T05:34:27.464Z,11.60
2023-03-14T05:36:57.139Z,11.60
2023-03-14T05:39:26.728Z,11.60
2023-03-14T05:41:56.807Z,11.60
2023-03-14T05:44:24.980Z,11.60
2023-03-14T05:46:52.836Z,11.60
2023-03-14T05:49:20.785Z,11.60
2023-03-14T05:51:48.724Z,11.60
2023-03-14T05:54:16.620Z,11.60
2023-03-14T05:56:45.875Z,11.50
2023-03-14T05:59:14.924Z,11.50
2023-03-14T06:01:43.306Z,11.60
2023-03-14T06:04:11.253Z,11.60
2023-03-14T06:06:39.437Z,11.50
2023-03-14T06:09:07.399Z,11.50
2023-03-14T06:11:35.328Z,11.50
2023-03-14T06:14:04.810Z,11.50
2023-03-14T06:16:33.161Z,11.50
2023-03-14T06:19:01.286Z,11.50
2023-03-14T06:21:29.116Z,11.50
2023-03-14T06:23:57.226Z,11.50
2023-03-14T06:26:25.116Z,11.50
2023-03-14T06:28:54.340Z,11.50
2023-03-14T06:31:23.645Z,11.50
2023-03-14T06:33:51.525Z,11.50
2023-03-14T06:36:19.705Z,11.60
2023-03-14T06:38:47.609Z,11.60
2023-03-14T06:41:15.469Z,11.60
2023-03-14T06:43:43.355Z,11.70
2023-03-14T06:46:11.303Z,11.70
2023-03-14T06:48:40.645Z,11.70
2023-03-14T06:51:08.689Z,11.60
2023-03-14T06:53:36.727Z,11.70
2023-03-14T06:56:04.840Z,11.70
2023-03-14T06:58:32.718Z,11.70
2023-03-14T07:01:00.795Z,11.70
2023-03-14T07:03:28.810Z,11.70
2023-03-14T07:05:58.500Z,11.70
2023-03-14T07:08:26.452Z,11.80
2023-03-14T07:10:54.361Z,11.80
2023-03-14T07:13:22.216Z,11.80
2023-03-14T07:15:50.164Z,11.80
2023-03-14T07:18:18.128Z,11.80
2023-03-14T07:20:48.194Z,11.90
2023-03-14T07:23:18.529Z,12.10
2023-03-14T07:25:46.589Z,12.30
2023-03-14T07:28:14.518Z,12.40
2023-03-14T07:30:42.450Z,12.50
2023-03-14T07:33:11.591Z,12.50
2023-03-14T07:35:39.772Z,12.50
2023-03-14T07:38:07.791Z,12.50
2023-03-14T07:40:37.217Z,12.50
2023-03-14T07:43:05.140Z,12.60
2023-03-14T07:45:33.112Z,12.60
2023-03-14T07:48:02.980Z,12.60
2023-03-14T07:50:30.973Z,12.70
2023-03-14T07:52:58.893Z,12.80
2023-03-14T07:55:26.822Z,13.30
2023-03-14T07:57:56.035Z,14.60
2023-03-14T08:00:24.124Z,16.00
2023-03-14T08:02:52.047Z,16.50
2023-03-14T08:05:20.058Z,16.20
2023-03-14T08:07:47.996Z,16.90
2023-03-14T08:10:22.906Z,17.90
2023-03-14T08:12:51.070Z,18.90
2023-03-14T08:15:20.494Z,19.90
2023-03-14T08:17:51.900Z,20.70
2023-03-14T08:20:20.140Z,21.10
2023-03-14T08:22:48.035Z,21.30
2023-03-14T08:25:16.055Z,21.80
2023-03-14T08:27:44.650Z,22.30
2023-03-14T08:30:14.241Z,22.50
2023-03-14T08:32:43.868Z,23.10
2023-03-14T08:35:13.889Z,23.20
2023-03-14T08:37:42.341Z,23.50
2023-03-14T08:40:11.354Z,23.90
2023-03-14T08:42:39.915Z,24.50
2023-03-14T08:45:09.459Z,25.00
2023-03-14T08:47:37.684Z,24.60
2023-03-14T08:50:08.631Z,24.90
2023-03-14T08:52:36.538Z,25.40
2023-03-14T08:55:04.556Z,25.60
2023-03-14T08:57:32.391Z,26.20
2023-03-14T09:00:00.375Z,26.90
2023-03-14T09:02:28.619Z,27.30
2023-03-14T09:04:56.692Z,26.30
2023-03-14T09:07:25.959Z,24.90
2023-03-14T09:09:53.789Z,23.60
2023-03-14T09:12:21.722Z,22.40
2023-03-14T09:14:49.856Z,21.40
2023-03-14T09:17:17.823Z,20.80
2023-03-14T09:19:45.684Z,20.90
2023-03-14T09:22:13.636Z,22.10
2023-03-14T09:24:43.682Z,22.70
2023-03-14T09:27:11.604Z,22.40
2023-03-14T09:29:39.467Z,21.50
2023-03-14T09:32:07.604Z,20.60
2023-03-14T09:34:36.934Z,20.00
2023-03-14T09:37:05.105Z,20.10
2023-03-14T09:39:33.021Z,20.00
2023-03-14T09:42:06.959Z,19.80
2023-03-14T09:44:39.812Z,19.10
2023-03-14T09:47:11.804Z,18.90
2023-03-14T09:49:42.449Z,18.90
2023-03-14T09:52:17.071Z,18.80
2023-03-14T09:54:47.073Z,18.80
2023-03-14T09:57:19.938Z,18.50
2023-03-14T09:59:50.380Z,18.40
2023-03-14T10:02:21.380Z,18.30
2023-03-14T10:04:51.082Z,18.30
2023-03-14T10:07:21.937Z,18.80
2023-03-14T10:09:52.002Z,19.70
2023-03-14T10:12:22.065Z,19.90
2023-03-14T10:14:52.731Z,19.80
2023-03-14T10:17:22.257Z,21.10
2023-03-14T10:19:55.526Z,22.10
2023-03-14T10:22:24.986Z,22.70
2023-03-14T10:24:55.538Z,24.40
2023-03-14T10:27:31.674Z,25.80
2023-03-14T10:30:01.512Z,27.80
2023-03-14T10:32:36.816Z,30.10
2023-03-14T10:35:21.462Z,31.60
2023-03-14T10:37:56.241Z,33.10
2023-03-14T10:40:30.452Z,34.30
2023-03-14T10:43:00.942Z,35.20
2023-03-14T10:45:34.805Z,35.70
2023-03-14T10:48:20.258Z,36.10
2023-03-14T10:50:56.435Z,36.20
2023-03-14T10:53:26.530Z,37.00
2023-03-14T10:55:57.756Z,35.90
2023-03-14T10:58:30.521Z,33.60
2023-03-14T11:01:15.145Z,31.20
2023-03-14T11:03:48.922Z,28.70
2023-03-14T11:06:23.824Z,26.50
2023-03-14T11:08:59.385Z,25.00
2023-03-14T11:11:31.329Z,23.60
2023-03-14T11:14:14.956Z,22.40
2023-03-14T11:16:55.307Z,21.40
2023-03-14T11:19:39.298Z,20.70
2023-03-14T11:22:16.246Z,19.90
2023-03-14T11:24:57.896Z,19.20
2023-03-14T11:27:45.424Z,18.80
2023-03-14T11:30:21.696Z,18.40
2023-03-14T11:32:56.806Z,17.80
2023-03-14T11:35:30.897Z,17.60
2023-03-14T11:38:12.523Z,17.40
2023-03-14T11:40:41.455Z,17.10
2023-03-14T11:43:16.846Z,16.90
2023-03-14T11:45:48.695Z,16.60
2023-03-14T11:48:25.226Z,16.40
2023-03-14T11:50:56.439Z,16.30
2023-03-14T11:53:38.443Z,16.20
2023-03-14T11:56:13.221Z,16.00
2023-03-14T11:58:47.957Z,15.90
2023-03-14T12:01:22.176Z,15.70
2023-03-14T12:03:59.012Z,15.70
2023-03-14T12:06:31.475Z,15.50
2023-03-14T12:09:00.976Z,15.50
2023-03-14T12:11:42.659Z,15.40
2023-03-14T12:14:23.352Z,15.40
2023-03-14T12:16:58.292Z,15.30
2023-03-14T12:19:43.437Z,15.30
2023-03-14T12:22:24.187Z,15.20
2023-03-14T12:24:55.777Z,15.10
2023-03-14T12:28:14.712Z,15.00
2023-03-14T12:30:44.082Z,15.00
2023-03-14T12:33:29.896Z,14.90
2023-03-14T12:36:06.323Z,14.90
2023-03-14T12:38:59.263Z,14.80
2023-03-14T12:41:31.773Z,14.80
2023-03-14T12:44:50.158Z,14.70
2023-03-14T12:47:55.336Z,14.70
2023-03-14T12:50:46.373Z,14.60
2023-03-14T12:53:51.800Z,14.70
2023-03-14T12:56:26.023Z,15.10
2023-03-14T12:59:07.951Z,15.30
2023-03-14T13:01:37.091Z,15.30
2023-03-14T13:04:11.397Z,15.40
2023-03-14T13:06:54.906Z,15.50
2023-03-14T13:09:53.863Z,15.30
2023-03-14T13:12:28.760Z,15.30
2023-03-14T13:14:59.592Z,15.60
2023-03-14T13:17:36.118Z,16.70
2023-03-14T13:20:11.914Z,18.20
2023-03-14T13:22:47.579Z,20.40
2023-03-14T13:25:17.682Z,22.10
2023-03-14T13:27:45.959Z,23.10
2023-03-14T13:30:25.954Z,23.40
2023-03-14T13:32:56.697Z,23.20
2023-03-14T13:35:28.643Z,21.90
2023-03-14T13:38:18.079Z,20.50
2023-03-14T13:40:47.476Z,19.60
2023-03-14T13:43:21.945Z,19.20
2023-03-14T13:45:58.676Z,18.60
2023-03-14T13:48:30.739Z,17.80
2023-03-14T13:51:02.613Z,17.10
2023-03-14T13:53:32.184Z,16.60
2023-03-14T13:56:04.230Z,15.90
2023-03-14T13:58:33.963Z,15.40
2023-03-14T14:01:05.280Z,15.00
2023-03-14T14:03:36.255Z,14.80
2023-03-14T14:06:04.420Z,14.60
2023-03-14T14:08:35.151Z,14.30
2023-03-14T14:11:06.215Z,14.80
2023-03-14T14:13:37.202Z,15.10
2023-03-14T14:16:06.367Z,15.50
2023-03-14T14:18:35.695Z,15.90
2023-03-14T14:21:04.850Z,15.90
2023-03-14T14:23:34.204Z,15.50
2023-03-14T14:26:02.318Z,15.10
2023-03-14T14:28:32.118Z,14.80
2023-03-14T14:31:06.385Z,14.40
2023-03-14T14:33:42.393Z,14.10
2023-03-14T14:36:21.895Z,13.90
2023-03-14T14:38:55.873Z,13.80
2023-03-14T14:41:28.534Z,13.60
2023-03-14T14:43:57.065Z,13.40
2023-03-14T14:46:27.332Z,13.40
2023-03-14T14:48:58.401Z,13.30
2023-03-14T14:51:32.649Z,13.10
2023-03-14T14:54:14.519Z,12.90
2023-03-14T14:56:42.662Z,12.80
2023-03-14T14:59:26.240Z,12.80
2023-03-14T15:01:58.558Z,12.60
2023-03-14T15:04:27.113Z,12.50
2023-03-14T15:06:55.405Z,12.50
2023-03-14T15:09:24.810Z,12.60
2023-03-14T15:11:52.967Z,12.60
2023-03-14T15:14:20.914Z,12.50
2023-03-14T15:16:49.166Z,12.50
2023-03-14T15:19:25.442Z,12.50
2023-03-14T15:21:54.160Z,12.50
2023-03-14T15:24:22.173Z,12.50
2023-03-14T15:26:51.893Z,12.50
2023-03-14T15:29:19.959Z,12.50
2023-03-14T15:31:48.698Z,12.60
2023-03-14T15:34:17.535Z,12.70
2023-03-14T15:36:45.550Z,12.80
2023-03-14T15:39:13.651Z,12.90
2023-03-14T15:41:41.593Z,13.00
2023-03-14T15:44:10.789Z,13.10
2023-03-14T15:46:38.798Z,13.20
2023-03-14T15:49:06.734Z,13.30
2023-03-14T15:51:34.615Z,13.20
2023-03-14T15:54:02.565Z,13.20
2023-03-14T15:56:31.994Z,13.20
2023-03-14T15:59:00.339Z,13.10
2023-03-14T16:01:29.682Z,13.00
2023-03-14T16:03:57.775Z,12.90
2023-03-14T16:06:25.855Z,12.80
2023-03-14T16:08:53.761Z,12.80
2023-03-14T16:11:23.045Z,12.70
2023-03-14T16:13:51.285Z,12.70
2023-03-14T16:16:19.376Z,12.60
2023-03-14T16:18:48.827Z,12.50
2023-03-14T16:21:18.713Z,12.40
2023-03-14T16:23:47.102Z,12.30
2023-03-14T16:26:16.573Z,12.40
2023-03-14T16:28:45.366Z,12.30
2023-03-14T16:31:16.336Z,12.20
2023-03-14T16:33:44.570Z,12.10
2023-03-14T16:36:15.332Z,12.00
2023-03-14T16:38:45.074Z,11.90
2023-03-14T16:41:14.718Z,11.90
2023-03-14T16:43:42.670Z,11.80
2023-03-14T16:46:13.825Z,11.70
2023-03-14T16:48:41.822Z,11.70
2023-03-14T16:51:09.794Z,11.60
2023-03-14T16:53:39.021Z,11.50
2023-03-14T16:56:07.864Z,11.50
2023-03-14T16:58:35.977Z,11.50
2023-03-14T17:01:10.447Z,11.40
2023-03-14T17:03:39.351Z,11.30
2023-03-14T17:06:07.841Z,11.40
2023-03-14T17:08:36.112Z,11.40
2023-03-14T17:11:05.687Z,11.40
2023-03-14T17:13:33.722Z,11.40
2023-03-14T17:16:02.843Z,11.40
2023-03-14T17:18:32.226Z,11.40
2023-03-14T17:21:01.126Z,11.50
2023-03-14T17:23:30.940Z,11.40
2023-03-14T17:25:59.044Z,11.40
2023-03-14T17:28:29.086Z,11.40
2023-03-14T17:31:08.236Z,11.40
2023-03-14T17:33:36.806Z,11.40
2023-03-14T17:36:05.734Z,11.40
2023-03-14T17:38:35.051Z,11.40
2023-03-14T17:41:03.065Z,11.30
2023-03-14T17:43:33.658Z,11.30
2023-03-14T17:46:06.120Z,11.30
2023-03-14T17:48:34.207Z,11.20
2023-03-14T17:51:02.501Z,11.20
2023-03-14T17:53:31.445Z,11.10
2023-03-14T17:55:59.751Z,11.00
2023-03-14T17:58:28.267Z,11.00
2023-03-14T18:00:58.149Z,11.00
2023-03-14T18:03:26.123Z,10.90
2023-03-14T18:05:54.080Z,10.80
2023-03-14T18:08:22.033Z,10.80
2023-03-14T18:10:55.101Z,10.80
2023-03-14T18:13:23.020Z,10.80
2023-03-14T18:15:52.113Z,10.70
2023-03-14T18:18:21.938Z,10.80
2023-03-14T18:20:51.770Z,10.70
2023-03-14T18:23:19.782Z,10.70
2023-03-14T18:25:47.840Z,10.60
2023-03-14T18:28:16.122Z,10.60
2023-03-14T18:30:47.100Z,10.60
2023-03-14T18:33:15.059Z,10.60
2023-03-14T18:35:44.896Z,10.50
2023-03-14T18:38:12.886Z,10.50
2023-03-14T18:40:41.185Z,10.50
2023-03-14T18:43:09.105Z,10.40
2023-03-14T18:45:37.011Z,10.40
2023-03-14T18:48:05.355Z,10.30
2023-03-14T18:50:33.412Z,10.20
2023-03-14T18:53:03.298Z,10.10
2023-03-14T18:55:31.558Z,10.10
2023-03-14T18:57:59.516Z,10.10
2023-03-14T19:00:28.427Z,10.10
2023-03-14T19:02:56.316Z,10.10
2023-03-14T19:05:24.287Z,10.00
2023-03-14T19:07:52.172Z,10.00
2023-03-14T19:10:21.462Z,9.90
2023-03-14T19:12:49.373Z,9.90
2023-03-14T19:15:17.482Z,9.80
2023-03-14T19:17:45.574Z,9.70
2023-03-14T19:20:13.907Z,9.70
2023-03-14T19:22:42.569Z,9.60
2023-03-14T19:25:11.433Z,9.60
2023-03-14T19:27:40.802Z,9.50
2023-03-14T19:30:09.613Z,9.50
2023-03-14T19:32:37.606Z,9.50
2023-03-14T19:35:06.034Z,9.50
2023-03-14T19:37:33.922Z,9.50
2023-03-14T19:40:01.890Z,9.50
2023-03-14T19:42:29.832Z,9.50
2023-03-14T19:44:59.085Z,9.40
2023-03-14T19:47:26.972Z,9.40
2023-03-14T19:49:55.078Z,9.40
2023-03-14T19:52:22.976Z,9.40
2023-03-14T19:54:50.952Z,9.40
2023-03-14T19:57:18.930Z,9.40
2023-03-14T19:59:46.814Z,9.40
2023-03-14T20:02:16.669Z,9.30
2023-03-14T20:04:46.522Z,9.30
2023-03-14T20:07:15.051Z,9.30
2023-03-14T20:09:43.710Z,9.30
2023-03-14T20:12:11.637Z,9.30
2023-03-14T20:14:39.565Z,9.30
2023-03-14T20:17:08.180Z,9.40
2023-03-14T20:19:37.460Z,9.30
2023-03-14T20:22:05.415Z,9.30
2023-03-14T20:24:33.582Z,9.30
2023-03-14T20:27:01.844Z,9.30
2023-03-14T20:29:29.768Z,9.30
2023-03-14T20:31:57.684Z,9.20
2023-03-14T20:34:25.766Z,9.20
2023-03-14T20:36:55.017Z,9.20
2023-03-14T20:39:24.631Z,9.20
2023-03-14T20:41:52.549Z,9.20
2023-03-14T20:44:20.422Z,9.20
2023-03-14T20:46:48.473Z,9.20
2023-03-14T20:49:16.393Z,9.20
2023-03-14T20:51:44.284Z,9.30
2023-03-14T20:54:14.998Z,9.30
2023-03-14T20:56:46.165Z,9.30
2023-03-14T20:59:14.325Z,9.40
2023-03-14T21:01:44.469Z,9.40
2023-03-14T21:04:12.446Z,9.40
2023-03-14T21:06:42.191Z,9.40
2023-03-14T21:09:10.518Z,9.40
2023-03-14T21:11:42.618Z,9.40
2023-03-14T21:14:10.490Z,9.40
2023-03-14T21:16:38.446Z,9.40
2023-03-14T21:19:06.455Z,9.40
2023-03-14T21:21:34.441Z,9.40
2023-03-14T21:24:02.455Z,9.40
2023-03-14T21:26:31.574Z,9.40
2023-03-14T21:29:02.910Z,9.40
2023-03-14T21:31:31.080Z,9.30
2023-03-14T21:34:00.247Z,9.30
2023-03-14T21:36:28.190Z,9.30
2023-03-14T21:38:56.030Z,9.30
2023-03-14T21:41:24.173Z,9.30
2023-03-14T21:43:52.177Z,9.30
2023-03-14T21:46:21.530Z,9.40
2023-03-14T21:48:49.436Z,9.40
2023-03-14T21:51:17.355Z,9.40
2023-03-14T21:53:45.671Z,9.40
2023-03-14T21:56:14.435Z,9.40
2023-03-14T21:58:42.529Z,9.40
2023-03-14T22:01:11.544Z,9.40
2023-03-14T22:03:40.957Z,9.30
2023-03-14T22:06:09.184Z,9.20
2023-03-14T22:08:37.136Z,9.10
2023-03-14T22:11:08.164Z,9.00
2023-03-14T22:13:36.087Z,9.00
2023-03-14T22:16:04.132Z,9.00
2023-03-14T22:18:32.187Z,8.90
2023-03-14T22:21:01.416Z,8.90
2023-03-14T22:23:29.368Z,8.80
2023-03-14T22:25:57.292Z,8.80
2023-03-14T22:28:25.203Z,8.80
2023-03-14T22:30:53.397Z,8.80
2023-03-14T22:33:21.843Z,8.70
2023-03-14T22:35:50.689Z,8.80
2023-03-14T22:38:20.238Z,8.70
2023-03-14T22:40:48.266Z,8.70
2023-03-14T22:43:16.211Z,8.70
2023-03-14T22:45:44.189Z,8.70
2023-03-14T22:48:12.128Z,8.70
2023-03-14T22:50:40.827Z,8.60
2023-03-14T22:53:09.869Z,8.60
2023-03-14T22:55:39.169Z,8.60
2023-03-14T22:58:07.072Z,8.60
2023-03-14T23:00:34.965Z,8.60
2023-03-14T23:03:02.969Z,8.50
2023-03-14T23:05:30.890Z,8.50
2023-03-14T23:07:58.790Z,8.50
2023-03-14T23:10:26.789Z,8.40
2023-03-14T23:12:57.552Z,8.30
2023-03-14T23:15:25.858Z,8.30
2023-03-14T23:17:53.743Z,8.10
2023-03-14T23:20:21.685Z,7.90
2023-03-14T23:22:49.589Z,7.80
2023-03-14T23:25:18.255Z,7.70
2023-03-14T23:27:46.397Z,7.70
2023-03-14T23:30:17.224Z,7.60
2023-03-14T23:32:45.160Z,7.50
2023-03-14T23:35:14.012Z,7.40
2023-03-14T23:37:42.240Z,7.30
2023-03-14T23:40:11.463Z,7.30
2023-03-14T23:42:39.877Z,7.20
2023-03-14T23:45:08.968Z,7.20
2023-03-14T23:47:38.219Z,7.20
2023-03-14T23:50:06.890Z,7.10
2023-03-14T23:52:34.804Z,7.10
2023-03-14T23:55:02.658Z,7.10
2023-03-14T23:57:30.618Z,7.00
2023-03-14T23:59:58.545Z,7.00
